createdAt,value
2023-05-10T00:00:20.033Z,94520.00
2023-05-10T00:01:20.048Z,94515.00
2023-05-10T00:02:20.032Z,94513.00
2023-05-10T00:03:20.079Z,94515.00
2023-05-10T00:04:20.102Z,94517.00
2023-05-10T00:05:20.021Z,94515.00
2023-05-10T00:06:20.009Z,94513.00
2023-05-10T00:07:20.007Z,94517.00
2023-05-10T00:08:20.013Z,94519.00
2023-05-10T00:09:20.004Z,94513.00
2023-05-10T00:10:20.009Z,94515.00
2023-05-10T00:11:22.205Z,94517.00
2023-05-10T00:12:20.031Z,94517.00
2023-05-10T00:13:20.084Z,94520.00
2023-05-10T00:14:20.038Z,94520.00
2023-05-10T00:15:20.033Z,94522.00
2023-05-10T00:16:20.052Z,94522.00
2023-05-10T00:17:20.026Z,94517.00
2023-05-10T00:18:20.008Z,94519.00
2023-05-10T00:19:20.002Z,94522.00
2023-05-10T00:20:20.046Z,94522.00
2023-05-10T00:21:19.992Z,94519.00
2023-05-10T00:22:20.018Z,94524.00
2023-05-10T00:23:19.996Z,94522.00
2023-05-10T00:24:19.998Z,94522.00
2023-05-10T00:25:20.004Z,94519.00
2023-05-10T00:26:19.981Z,94520.00
2023-05-10T00:27:19.967Z,94524.00
2023-05-10T00:28:19.983Z,94522.00
2023-05-10T00:29:19.990Z,94522.00
2023-05-10T00:30:19.969Z,94526.00
2023-05-10T00:31:19.965Z,94526.00
2023-05-10T00:32:20.076Z,94526.00
2023-05-10T00:33:19.950Z,94528.00
2023-05-10T00:34:19.946Z,94528.00
2023-05-10T00:35:19.950Z,94530.00
2023-05-10T00:36:19.941Z,94528.00
2023-05-10T00:37:19.945Z,94528.00
2023-05-10T00:38:19.993Z,94528.00
2023-05-10T00:39:20.053Z,94524.00
2023-05-10T00:40:20.109Z,94524.00
2023-05-10T00:41:20.158Z,94526.00
2023-05-10T00:42:20.202Z,94526.00
2023-05-10T00:43:20.272Z,94526.00
2023-05-10T00:44:20.330Z,94526.00
2023-05-10T00:45:20.422Z,94528.00
2023-05-10T00:46:20.480Z,94524.00
2023-05-10T00:47:20.501Z,94528.00
2023-05-10T00:48:20.557Z,94526.00
2023-05-10T00:49:20.590Z,94528.00
2023-05-10T00:50:20.661Z,94528.00
2023-05-10T00:51:20.721Z,94528.00
2023-05-10T00:52:20.772Z,94526.00
2023-05-10T00:53:21.373Z,94528.00
2023-05-10T00:54:20.875Z,94528.00
2023-05-10T00:55:20.924Z,94526.00
2023-05-10T00:56:20.981Z,94524.00
2023-05-10T00:57:21.031Z,94526.00
2023-05-10T00:58:21.095Z,94526.00
2023-05-10T00:59:21.145Z,94522.00
2023-05-10T01:00:21.204Z,94524.00
2023-05-10T01:01:21.359Z,94524.00
2023-05-10T01:02:21.428Z,94524.00
2023-05-10T01:03:21.458Z,94524.00
2023-05-10T01:04:21.408Z,94524.00
2023-05-10T01:05:21.517Z,94522.00
2023-05-10T01:06:21.521Z,94524.00
2023-05-10T01:07:21.578Z,94522.00
2023-05-10T01:08:21.639Z,94524.00
2023-05-10T01:09:21.696Z,94524.00
2023-05-10T01:10:21.755Z,94526.00
2023-05-10T01:11:21.814Z,94530.00
2023-05-10T01:12:21.947Z,94528.00
2023-05-10T01:13:22.097Z,94530.00
2023-05-10T01:14:21.989Z,94528.00
2023-05-10T01:15:22.049Z,94532.00
2023-05-10T01:16:22.174Z,94530.00
2023-05-10T01:17:22.205Z,94534.00
2023-05-10T01:18:22.202Z,94534.00
2023-05-10T01:19:22.270Z,94534.00
2023-05-10T01:20:22.328Z,94534.00
2023-05-10T01:21:22.381Z,94536.00
2023-05-10T01:22:22.454Z,94536.00
2023-05-10T01:23:22.510Z,94540.00
2023-05-10T01:24:22.549Z,94540.00
2023-05-10T01:25:22.613Z,94542.00
2023-05-10T01:26:22.672Z,94542.00
2023-05-10T01:27:22.733Z,94542.00
2023-05-10T01:28:22.834Z,94544.00
2023-05-10T01:29:22.848Z,94544.00
2023-05-10T01:30:22.947Z,94542.00
2023-05-10T01:31:23.105Z,94546.00
2023-05-10T01:32:23.056Z,94546.00
2023-05-10T01:33:23.200Z,94546.00
2023-05-10T01:34:23.134Z,94546.00
2023-05-10T01:35:23.191Z,94546.00
2023-05-10T01:36:23.242Z,94546.00
2023-05-10T01:37:23.298Z,94546.00
2023-05-10T01:38:23.389Z,94542.00
2023-05-10T01:39:23.404Z,94542.00
2023-05-10T01:40:23.484Z,94542.00
2023-05-10T01:41:23.522Z,94542.00
2023-05-10T01:42:23.583Z,94540.00
2023-05-10T01:43:23.643Z,94544.00
2023-05-10T01:44:23.744Z,94546.00
2023-05-10T01:45:23.764Z,94546.00
2023-05-10T01:46:23.852Z,94544.00
2023-05-10T01:47:23.883Z,94542.00
2023-05-10T01:48:23.942Z,94544.00
2023-05-10T01:49:24.029Z,94540.00
2023-05-10T01:50:24.054Z,94538.00
2023-05-10T01:51:24.117Z,94538.00
2023-05-10T01:52:24.202Z,94536.00
2023-05-10T01:53:24.230Z,94534.00
2023-05-10T01:54:24.328Z,94536.00
2023-05-10T01:55:24.333Z,94536.00
2023-05-10T01:56:24.396Z,94536.00
2023-05-10T01:57:24.451Z,94534.00
2023-05-10T01:58:24.513Z,94534.00
2023-05-10T01:59:24.585Z,94534.00
2023-05-10T02:00:24.640Z,94534.00
2023-05-10T02:01:24.700Z,94534.00
2023-05-10T02:02:24.800Z,94534.00
2023-05-10T02:03:24.907Z,94534.00
2023-05-10T02:04:24.884Z,94532.00
2023-05-10T02:05:24.965Z,94534.00
2023-05-10T02:06:25.011Z,94532.00
2023-05-10T02:07:25.059Z,94534.00
2023-05-10T02:08:25.123Z,94534.00
2023-05-10T02:09:25.178Z,94534.00
2023-05-10T02:10:25.221Z,94532.00
2023-05-10T02:11:25.283Z,94532.00
2023-05-10T02:12:25.344Z,94534.00
2023-05-10T02:13:25.643Z,94534.00
2023-05-10T02:14:25.491Z,94536.00
2023-05-10T02:15:25.524Z,94536.00
2023-05-10T02:16:25.594Z,94536.00
2023-05-10T02:17:25.659Z,94534.00
2023-05-10T02:18:25.684Z,94536.00
2023-05-10T02:19:25.772Z,94534.00
2023-05-10T02:20:25.808Z,94538.00
2023-05-10T02:21:25.898Z,94534.00
2023-05-10T02:22:25.933Z,94536.00
2023-05-10T02:23:25.992Z,94536.00
2023-05-10T02:24:26.064Z,94536.00
2023-05-10T02:25:26.151Z,94536.00
2023-05-10T02:26:26.193Z,94538.00
2023-05-10T02:27:26.254Z,94538.00
2023-05-10T02:28:26.349Z,94538.00
2023-05-10T02:29:26.375Z,94536.00
2023-05-10T02:30:26.464Z,94538.00
2023-05-10T02:31:26.503Z,94538.00
2023-05-10T02:32:26.587Z,94538.00
2023-05-10T02:33:26.650Z,94540.00
2023-05-10T02:34:26.681Z,94540.00
2023-05-10T02:35:26.741Z,94540.00
2023-05-10T02:36:26.807Z,94540.00
2023-05-10T02:37:26.880Z,94542.00
2023-05-10T02:38:26.937Z,94540.00
2023-05-10T02:39:26.985Z,94540.00
2023-05-10T02:40:28.778Z,94538.00
2023-05-10T02:41:27.051Z,94540.00
2023-05-10T02:42:27.066Z,94542.00
2023-05-10T02:43:27.062Z,94542.00
2023-05-10T02:44:27.062Z,94542.00
2023-05-10T02:45:27.060Z,94540.00
2023-05-10T02:46:27.119Z,94542.00
2023-05-10T02:47:27.110Z,94544.00
2023-05-10T02:48:27.056Z,94542.00
2023-05-10T02:49:27.061Z,94542.00
2023-05-10T02:50:27.058Z,94546.00
2023-05-10T02:51:27.059Z,94544.00
2023-05-10T02:52:27.054Z,94548.00
2023-05-10T02:53:27.122Z,94546.00
2023-05-10T02:54:27.051Z,94550.00
2023-05-10T02:55:27.074Z,94550.00
2023-05-10T02:56:27.063Z,94548.00
2023-05-10T02:57:27.062Z,94548.00
2023-05-10T02:58:27.061Z,94550.00
2023-05-10T02:59:27.067Z,94552.00
2023-05-10T03:00:27.060Z,94552.00
2023-05-10T03:01:27.092Z,94554.00
2023-05-10T03:02:27.097Z,94554.00
2023-05-10T03:03:27.066Z,94554.00
2023-05-10T03:04:27.092Z,94558.00
2023-05-10T03:05:27.078Z,94558.00
2023-05-10T03:06:27.100Z,94560.00
2023-05-10T03:07:27.154Z,94560.00
2023-05-10T03:08:27.210Z,94560.00
2023-05-10T03:09:27.299Z,94562.00
2023-05-10T03:10:27.337Z,94562.00
2023-05-10T03:11:27.408Z,94562.00
2023-05-10T03:12:27.490Z,94562.00
2023-05-10T03:13:27.657Z,94562.00
2023-05-10T03:14:27.580Z,94562.00
2023-05-10T03:15:27.642Z,94560.00
2023-05-10T03:16:27.880Z,94562.00
2023-05-10T03:17:27.804Z,94562.00
2023-05-10T03:18:27.845Z,94560.00
2023-05-10T03:19:27.876Z,94558.00
2023-05-10T03:20:27.942Z,94560.00
2023-05-10T03:21:28.008Z,94556.00
2023-05-10T03:22:28.072Z,94558.00
2023-05-10T03:23:28.120Z,94556.00
2023-05-10T03:24:28.190Z,94556.00
2023-05-10T03:25:28.274Z,94552.00
2023-05-10T03:26:28.326Z,94558.00
2023-05-10T03:27:28.380Z,94558.00
2023-05-10T03:28:28.417Z,94558.00
2023-05-10T03:29:28.493Z,94562.00
2023-05-10T03:30:28.544Z,94562.00
2023-05-10T03:31:28.651Z,94560.00
2023-05-10T03:32:28.716Z,94560.00
2023-05-10T03:33:28.728Z,94560.00
2023-05-10T03:34:28.801Z,94562.00
2023-05-10T03:35:28.861Z,94562.00
2023-05-10T03:36:28.910Z,94562.00
2023-05-10T03:37:28.973Z,94562.00
2023-05-10T03:38:30.502Z,94562.00
2023-05-10T03:39:29.286Z,94566.00
2023-05-10T03:40:29.345Z,94564.00
2023-05-10T03:41:29.447Z,94564.00
2023-05-10T03:42:29.477Z,94564.00
2023-05-10T03:43:29.533Z,94569.00
2023-05-10T03:44:29.600Z,94566.00
2023-05-10T03:45:29.692Z,94567.00
2023-05-10T03:46:29.751Z,94567.00
2023-05-10T03:47:29.815Z,94569.00
2023-05-10T03:48:29.863Z,94567.00
2023-05-10T03:49:29.932Z,94567.00
2023-05-10T03:50:29.983Z,94567.00
2023-05-10T03:51:30.035Z,94571.00
2023-05-10T03:52:30.108Z,94571.00
2023-05-10T03:53:30.171Z,94571.00
2023-05-10T03:54:30.261Z,94575.00
2023-05-10T03:55:30.293Z,94573.00
2023-05-10T03:56:30.356Z,94575.00
2023-05-10T03:57:30.441Z,94577.00
2023-05-10T03:58:30.477Z,94575.00
2023-05-10T03:59:30.538Z,94577.00
2023-05-10T04:00:30.604Z,94577.00
2023-05-10T04:01:30.670Z,94577.00
2023-05-10T04:02:30.916Z,94577.00
2023-05-10T04:03:30.952Z,94577.00
2023-05-10T04:04:30.861Z,94575.00
2023-05-10T04:05:30.923Z,94577.00
2023-05-10T04:06:31.041Z,94579.00
2023-05-10T04:07:31.051Z,94579.00
2023-05-10T04:08:31.137Z,94579.00
2023-05-10T04:09:31.194Z,94579.00
2023-05-10T04:10:31.247Z,94579.00
2023-05-10T04:11:31.306Z,94581.00
2023-05-10T04:12:31.366Z,94581.00
2023-05-10T04:13:31.465Z,94581.00
2023-05-10T04:14:31.508Z,94579.00
2023-05-10T04:15:31.581Z,94583.00
2023-05-10T04:16:31.682Z,94585.00
2023-05-10T04:17:31.749Z,94585.00
2023-05-10T04:18:31.771Z,94587.00
2023-05-10T04:19:31.853Z,94587.00
2023-05-10T04:20:31.907Z,94587.00
2023-05-10T04:21:31.970Z,94591.00
2023-05-10T04:22:32.042Z,94591.00
2023-05-10T04:23:32.113Z,94587.00
2023-05-10T04:24:32.167Z,94593.00
2023-05-10T04:25:32.239Z,94593.00
2023-05-10T04:26:32.311Z,94593.00
2023-05-10T04:27:32.385Z,94595.00
2023-05-10T04:28:32.448Z,94595.00
2023-05-10T04:29:32.549Z,94599.00
2023-05-10T04:30:32.632Z,94599.00
2023-05-10T04:31:32.647Z,94597.00
2023-05-10T04:32:32.760Z,94597.00
2023-05-10T04:33:32.789Z,94599.00
2023-05-10T04:34:32.865Z,94599.00
2023-05-10T04:35:32.936Z,94597.00
2023-05-10T04:36:33.003Z,94599.00
2023-05-10T04:37:33.071Z,94599.00
2023-05-10T04:38:33.130Z,94601.00
2023-05-10T04:39:33.221Z,94599.00
2023-05-10T04:40:33.261Z,94601.00
2023-05-10T04:41:33.325Z,94601.00
2023-05-10T04:42:33.397Z,94603.00
2023-05-10T04:43:33.491Z,94603.00
2023-05-10T04:44:33.532Z,94605.00
2023-05-10T04:45:33.616Z,94599.00
2023-05-10T04:46:33.684Z,94603.00
2023-05-10T04:47:33.737Z,94605.00
2023-05-10T04:48:33.807Z,94603.00
2023-05-10T04:49:33.856Z,94603.00
2023-05-10T04:50:33.910Z,94603.00
2023-05-10T04:51:33.980Z,94603.00
2023-05-10T04:52:34.055Z,94603.00
2023-05-10T04:53:34.125Z,94603.00
2023-05-10T04:54:34.179Z,94603.00
2023-05-10T04:55:34.252Z,94603.00
2023-05-10T04:56:34.300Z,94605.00
2023-05-10T04:57:34.373Z,94605.00
2023-05-10T04:58:34.446Z,94605.00
2023-05-10T04:59:34.512Z,94605.00
2023-05-10T05:00:34.581Z,94607.00
2023-05-10T05:01:34.914Z,94605.00
2023-05-10T05:02:34.796Z,94607.00
2023-05-10T05:03:34.875Z,94609.00
2023-05-10T05:04:34.854Z,94611.00
2023-05-10T05:05:34.925Z,94607.00
2023-05-10T05:06:34.996Z,94613.00
2023-05-10T05:07:35.067Z,94613.00
2023-05-10T05:08:35.125Z,94613.00
2023-05-10T05:09:35.204Z,94609.00
2023-05-10T05:10:35.268Z,94611.00
2023-05-10T05:11:35.333Z,94609.00
2023-05-10T05:12:35.398Z,94609.00
2023-05-10T05:13:35.476Z,94611.00
2023-05-10T05:14:35.553Z,94611.00
2023-05-10T05:15:35.636Z,94614.00
2023-05-10T05:16:35.784Z,94614.00
2023-05-10T05:17:35.816Z,94611.00
2023-05-10T05:18:35.822Z,94611.00
2023-05-10T05:19:35.971Z,94611.00
2023-05-10T05:20:36.463Z,94611.00
2023-05-10T05:21:36.041Z,94611.00
2023-05-10T05:22:36.116Z,94614.00
2023-05-10T05:23:36.181Z,94613.00
2023-05-10T05:24:36.250Z,94613.00
2023-05-10T05:25:36.350Z,94613.00
2023-05-10T05:26:36.402Z,94614.00
2023-05-10T05:27:36.476Z,94613.00
2023-05-10T05:28:36.548Z,94614.00
2023-05-10T05:29:36.622Z,94614.00
2023-05-10T05:30:36.704Z,94614.00
2023-05-10T05:31:36.765Z,94614.00
2023-05-10T05:32:36.887Z,94613.00
2023-05-10T05:33:36.888Z,94614.00
2023-05-10T05:34:36.938Z,94614.00
2023-05-10T05:35:37.016Z,94614.00
2023-05-10T05:36:37.720Z,94616.00
2023-05-10T05:37:37.159Z,94618.00
2023-05-10T05:38:37.241Z,94622.00
2023-05-10T05:39:37.316Z,94620.00
2023-05-10T05:40:37.381Z,94622.00
2023-05-10T05:41:37.477Z,94622.00
2023-05-10T05:42:37.537Z,94624.00
2023-05-10T05:43:38.652Z,94624.00
2023-05-10T05:44:37.979Z,94626.00
2023-05-10T05:45:37.776Z,94626.00
2023-05-10T05:46:37.842Z,94626.00
2023-05-10T05:47:37.877Z,94628.00
2023-05-10T05:48:37.897Z,94640.00
2023-05-10T05:49:38.997Z,94638.00
2023-05-10T05:50:38.495Z,94642.00
2023-05-10T05:51:38.081Z,94640.00
2023-05-10T05:52:38.999Z,94642.00
2023-05-10T05:53:38.221Z,94642.00
2023-05-10T05:54:38.481Z,94642.00
2023-05-10T05:55:38.432Z,94642.00
2023-05-10T05:56:38.441Z,94644.00
2023-05-10T05:57:38.997Z,94644.00
2023-05-10T05:58:38.587Z,94646.00
2023-05-10T05:59:38.999Z,94646.00
2023-05-10T06:00:38.695Z,94644.00
2023-05-10T06:01:38.738Z,94648.00
2023-05-10T06:02:54.570Z,94648.00
2023-05-10T06:03:42.179Z,94644.00
2023-05-10T06:04:44.706Z,94646.00
2023-05-10T06:05:38.990Z,94644.00
2023-05-10T06:06:38.794Z,94644.00
2023-05-10T06:07:38.991Z,94642.00
2023-05-10T06:08:38.796Z,94648.00
2023-05-10T06:09:38.792Z,94646.00
2023-05-10T06:10:38.791Z,94646.00
2023-05-10T06:11:38.779Z,94646.00
2023-05-10T06:12:38.994Z,94648.00
2023-05-10T06:13:38.764Z,94646.00
2023-05-10T06:14:38.772Z,94646.00
2023-05-10T06:15:38.755Z,94648.00
2023-05-10T06:16:39.815Z,94652.00
2023-05-10T06:17:38.766Z,94648.00
2023-05-10T06:18:38.868Z,94648.00
2023-05-10T06:19:38.752Z,94648.00
2023-05-10T06:20:38.775Z,94652.00
2023-05-10T06:21:38.735Z,94652.00
2023-05-10T06:22:38.737Z,94652.00
2023-05-10T06:23:38.743Z,94654.00
2023-05-10T06:24:38.992Z,94656.00
2023-05-10T06:25:38.801Z,94656.00
2023-05-10T06:26:38.836Z,94656.00
2023-05-10T06:27:38.907Z,94656.00
2023-05-10T06:28:38.955Z,94658.00
2023-05-10T06:29:39.496Z,94660.00
2023-05-10T06:31:10.194Z,94658.00
2023-05-10T06:32:10.020Z,94658.00
2023-05-10T06:33:10.113Z,94660.00
2023-05-10T06:34:10.054Z,94660.00
2023-05-10T06:35:10.085Z,94658.00
2023-05-10T06:36:10.122Z,94660.00
2023-05-10T06:37:10.101Z,94660.00
2023-05-10T06:38:10.123Z,94660.00
2023-05-10T06:39:10.192Z,94658.00
2023-05-10T06:40:10.181Z,94660.00
2023-05-10T06:41:10.162Z,94660.00
2023-05-10T06:42:10.171Z,94660.00
2023-05-10T06:43:10.181Z,94660.00
2023-05-10T06:44:10.194Z,94662.00
2023-05-10T06:45:10.677Z,94662.00
2023-05-10T06:46:10.267Z,94662.00
2023-05-10T06:47:10.231Z,94662.00
2023-05-10T06:48:10.292Z,94662.00
2023-05-10T06:49:10.695Z,94662.00
2023-05-10T06:50:10.741Z,94662.00
2023-05-10T06:51:10.329Z,94663.00
2023-05-10T06:52:10.434Z,94662.00
2023-05-10T06:53:17.878Z,94663.00
2023-05-10T06:54:13.689Z,94662.00
2023-05-10T06:55:18.319Z,94665.00
2023-05-10T06:56:11.556Z,94663.00
2023-05-10T06:57:23.364Z,94665.00
2023-05-10T06:58:10.523Z,94665.00
2023-05-10T06:59:10.582Z,94665.00
2023-05-10T07:00:10.735Z,94663.00
2023-05-10T07:01:10.748Z,94667.00
2023-05-10T07:02:10.594Z,94663.00
2023-05-10T07:03:10.690Z,94665.00
2023-05-10T07:04:10.693Z,94663.00
2023-05-10T07:05:10.679Z,94662.00
2023-05-10T07:06:21.732Z,94663.00
2023-05-10T07:07:10.625Z,94663.00
2023-05-10T07:08:10.652Z,94662.00
2023-05-10T07:09:10.684Z,94665.00
2023-05-10T07:10:10.697Z,94665.00
2023-05-10T07:11:10.671Z,94667.00
2023-05-10T07:12:12.119Z,94667.00
2023-05-10T07:13:10.745Z,94667.00
2023-05-10T07:14:10.700Z,94669.00
2023-05-10T07:15:10.724Z,94671.00
2023-05-10T07:16:10.728Z,94673.00
2023-05-10T07:17:11.281Z,94675.00
2023-05-10T07:18:10.868Z,94675.00
2023-05-10T07:19:10.736Z,94673.00
2023-05-10T07:20:10.751Z,94675.00
2023-05-10T07:21:10.854Z,94675.00
2023-05-10T07:22:10.766Z,94675.00
2023-05-10T07:23:11.689Z,94675.00
2023-05-10T07:24:10.807Z,94679.00
2023-05-10T07:25:11.789Z,94677.00
2023-05-10T07:26:10.804Z,94679.00
2023-05-10T07:27:11.192Z,94679.00
2023-05-10T07:28:10.819Z,94683.00
2023-05-10T07:29:11.198Z,94683.00
2023-05-10T07:30:10.840Z,94681.00
2023-05-10T07:31:10.996Z,94683.00
2023-05-10T07:32:11.250Z,94683.00
2023-05-10T07:33:11.129Z,94685.00
2023-05-10T07:34:12.155Z,94681.00
2023-05-10T07:35:11.715Z,94685.00
2023-05-10T07:36:11.293Z,94685.00
2023-05-10T07:37:11.370Z,94685.00
2023-05-10T07:38:11.473Z,94689.00
2023-05-10T07:39:14.487Z,94689.00
2023-05-10T07:40:11.722Z,94689.00
2023-05-10T07:41:14.808Z,94693.00
2023-05-10T07:42:11.567Z,94691.00
2023-05-10T07:43:11.553Z,94693.00
2023-05-10T07:44:11.588Z,94691.00
2023-05-10T07:45:11.765Z,94691.00
2023-05-10T07:46:12.664Z,94693.00
2023-05-10T07:47:11.625Z,94693.00
2023-05-10T07:48:11.608Z,94693.00
2023-05-10T07:49:13.668Z,94693.00
2023-05-10T07:50:11.855Z,94693.00
2023-05-10T07:51:11.670Z,94691.00
2023-05-10T07:52:11.666Z,94693.00
2023-05-10T07:53:11.692Z,94693.00
2023-05-10T07:54:11.716Z,94695.00
2023-05-10T07:55:11.737Z,94697.00
2023-05-10T07:56:11.838Z,94699.00
2023-05-10T07:57:11.666Z,94697.00
2023-05-10T07:58:11.684Z,94695.00
2023-05-10T07:59:12.910Z,94695.00
2023-05-10T08:00:11.717Z,94695.00
2023-05-10T08:01:11.682Z,94693.00
2023-05-10T08:02:11.828Z,94695.00
2023-05-10T08:03:11.925Z,94695.00
2023-05-10T08:04:15.045Z,94695.00
2023-05-10T08:05:12.240Z,94693.00
2023-05-10T08:06:11.820Z,94693.00
2023-05-10T08:07:12.219Z,94695.00
2023-05-10T08:08:11.859Z,94695.00
2023-05-10T08:09:11.900Z,94697.00
2023-05-10T08:10:11.840Z,94697.00
2023-05-10T08:11:11.856Z,94699.00
2023-05-10T08:12:11.885Z,94699.00
2023-05-10T08:13:11.866Z,94699.00
2023-05-10T08:14:11.877Z,94699.00
2023-05-10T08:15:12.245Z,94701.00
2023-05-10T08:16:11.909Z,94701.00
2023-05-10T08:17:11.911Z,94703.00
2023-05-10T08:18:11.986Z,94703.00
2023-05-10T08:19:11.982Z,94703.00
2023-05-10T08:20:12.209Z,94705.00
2023-05-10T08:21:11.963Z,94705.00
2023-05-10T08:22:12.037Z,94707.00
2023-05-10T08:23:12.215Z,94707.00
2023-05-10T08:24:12.206Z,94707.00
2023-05-10T08:25:12.711Z,94709.00
2023-05-10T08:26:12.407Z,94709.00
2023-05-10T08:27:12.449Z,94709.00
2023-05-10T08:28:12.568Z,94711.00
2023-05-10T08:29:12.618Z,94713.00
2023-05-10T08:30:12.710Z,94716.00
2023-05-10T08:31:12.826Z,94718.00
2023-05-10T08:32:12.871Z,94720.00
2023-05-10T08:33:12.982Z,94720.00
2023-05-10T08:34:13.040Z,94720.00
2023-05-10T08:35:13.227Z,94722.00
2023-05-10T08:36:13.179Z,94720.00
2023-05-10T08:37:13.263Z,94720.00
2023-05-10T08:38:14.370Z,94722.00
2023-05-10T08:39:22.867Z,94720.00
2023-05-10T08:40:14.773Z,94724.00
2023-05-10T08:41:13.749Z,94722.00
2023-05-10T08:42:13.627Z,94724.00
2023-05-10T08:43:13.746Z,94726.00
2023-05-10T08:44:13.834Z,94726.00
2023-05-10T08:45:14.296Z,94726.00
2023-05-10T08:46:13.921Z,94724.00
2023-05-10T08:47:14.069Z,94724.00
2023-05-10T08:48:14.112Z,94724.00
2023-05-10T08:49:14.152Z,94722.00
2023-05-10T08:50:14.718Z,94724.00
2023-05-10T08:51:14.316Z,94724.00
2023-05-10T08:52:15.385Z,94726.00
2023-05-10T08:53:14.488Z,94730.00
2023-05-10T08:54:14.539Z,94732.00
2023-05-10T08:55:14.984Z,94730.00
2023-05-10T08:56:14.700Z,94732.00
2023-05-10T08:57:14.775Z,94732.00
2023-05-10T08:58:15.291Z,94732.00
2023-05-10T08:59:14.925Z,94736.00
2023-05-10T09:00:15.083Z,94734.00
2023-05-10T09:01:15.119Z,94738.00
2023-05-10T09:02:17.238Z,94736.00
2023-05-10T09:03:15.163Z,94738.00
2023-05-10T09:04:15.324Z,94738.00
2023-05-10T09:05:15.459Z,94740.00
2023-05-10T09:06:15.211Z,94742.00
2023-05-10T09:07:15.206Z,94742.00
2023-05-10T09:08:15.218Z,94740.00
2023-05-10T09:09:15.251Z,94742.00
2023-05-10T09:10:15.996Z,94742.00
2023-05-10T09:11:15.253Z,94742.00
2023-05-10T09:12:15.258Z,94738.00
2023-05-10T09:13:15.273Z,94738.00
2023-05-10T09:14:15.306Z,94742.00
2023-05-10T09:15:16.011Z,94744.00
2023-05-10T09:16:21.990Z,94742.00
2023-05-10T09:17:15.371Z,94744.00
2023-05-10T09:18:15.420Z,94744.00
2023-05-10T09:19:15.371Z,94742.00
2023-05-10T09:20:15.406Z,94742.00
2023-05-10T09:21:22.793Z,94746.00
2023-05-10T09:22:15.409Z,94746.00
2023-05-10T09:23:15.415Z,94748.00
2023-05-10T09:24:15.434Z,94746.00
2023-05-10T09:25:15.919Z,94746.00
2023-05-10T09:26:15.740Z,94748.00
2023-05-10T09:27:15.472Z,94750.00
2023-05-10T09:28:15.476Z,94750.00
2023-05-10T09:29:17.356Z,94752.00
2023-05-10T09:30:15.499Z,94750.00
2023-05-10T09:31:15.551Z,94750.00
2023-05-10T09:32:15.559Z,94750.00
2023-05-10T09:33:15.541Z,94750.00
2023-05-10T09:34:15.812Z,94750.00
2023-05-10T09:35:15.802Z,94750.00
2023-05-10T09:36:15.758Z,94750.00
2023-05-10T09:37:15.608Z,94748.00
2023-05-10T09:38:15.766Z,94750.00
2023-05-10T09:39:15.608Z,94748.00
2023-05-10T09:40:15.617Z,94750.00
2023-05-10T09:41:15.646Z,94748.00
2023-05-10T09:42:15.649Z,94748.00
2023-05-10T09:43:15.762Z,94748.00
2023-05-10T09:44:15.661Z,94744.00
2023-05-10T09:45:16.038Z,94744.00
2023-05-10T09:46:15.716Z,94742.00
2023-05-10T09:47:15.684Z,94742.00
2023-05-10T09:48:15.728Z,94742.00
2023-05-10T09:49:15.708Z,94742.00
2023-05-10T09:50:15.730Z,94740.00
2023-05-10T09:51:15.732Z,94744.00
2023-05-10T09:52:15.814Z,94744.00
2023-05-10T09:53:15.918Z,94744.00
2023-05-10T09:54:16.249Z,94744.00
2023-05-10T09:55:16.281Z,94746.00
2023-05-10T09:56:16.153Z,94746.00
2023-05-10T09:57:16.251Z,94746.00
2023-05-10T09:58:16.309Z,94748.00
2023-05-10T09:59:17.380Z,94746.00
2023-05-10T10:00:16.499Z,94746.00
2023-05-10T10:01:16.771Z,94748.00
2023-05-10T10:02:16.606Z,94744.00
2023-05-10T10:03:16.683Z,94742.00
2023-05-10T10:04:16.928Z,94740.00
2023-05-10T10:05:17.078Z,94740.00
2023-05-10T10:06:29.111Z,94742.00
2023-05-10T10:07:16.954Z,94740.00
2023-05-10T10:08:17.012Z,94740.00
2023-05-10T10:09:16.975Z,94738.00
2023-05-10T10:10:17.276Z,94738.00
2023-05-10T10:11:17.978Z,94738.00
2023-05-10T10:12:16.996Z,94736.00
2023-05-10T10:13:16.996Z,94736.00
2023-05-10T10:14:17.009Z,94734.00
2023-05-10T10:15:17.164Z,94736.00
2023-05-10T10:16:17.310Z,94736.00
2023-05-10T10:17:17.051Z,94738.00
2023-05-10T10:18:17.087Z,94738.00
2023-05-10T10:19:17.254Z,94738.00
2023-05-10T10:20:17.483Z,94736.00
2023-05-10T10:21:17.260Z,94738.00
2023-05-10T10:22:17.306Z,94738.00
2023-05-10T10:23:17.907Z,94740.00
2023-05-10T10:24:17.458Z,94742.00
2023-05-10T10:25:17.887Z,94746.00
2023-05-10T10:26:17.762Z,94744.00
2023-05-10T10:27:17.691Z,94748.00
2023-05-10T10:28:17.771Z,94750.00
2023-05-10T10:29:17.858Z,94750.00
2023-05-10T10:30:17.954Z,94750.00
2023-05-10T10:31:18.346Z,94750.00
2023-05-10T10:32:18.097Z,94752.00
2023-05-10T10:33:27.851Z,94752.00
2023-05-10T10:34:18.188Z,94750.00
2023-05-10T10:35:18.428Z,94752.00
2023-05-10T10:36:18.299Z,94752.00
2023-05-10T10:37:18.216Z,94752.00
2023-05-10T10:38:18.220Z,94748.00
2023-05-10T10:39:18.259Z,94752.00
2023-05-10T10:40:18.247Z,94750.00
2023-05-10T10:41:18.264Z,94750.00
2023-05-10T10:42:18.264Z,94750.00
2023-05-10T10:43:18.281Z,94750.00
2023-05-10T10:44:18.288Z,94750.00
2023-05-10T10:45:18.709Z,94748.00
2023-05-10T10:46:18.729Z,94748.00
2023-05-10T10:47:18.327Z,94752.00
2023-05-10T10:48:18.327Z,94750.00
2023-05-10T10:49:18.358Z,94750.00
2023-05-10T10:50:18.351Z,94750.00
2023-05-10T10:51:18.777Z,94750.00
2023-05-10T10:52:18.390Z,94750.00
2023-05-10T10:53:18.460Z,94746.00
2023-05-10T10:54:18.506Z,94746.00
2023-05-10T10:55:18.964Z,94748.00
2023-05-10T10:56:18.617Z,94746.00
2023-05-10T10:57:18.694Z,94746.00
2023-05-10T10:58:18.773Z,94744.00
2023-05-10T10:59:18.845Z,94746.00
2023-05-10T11:00:18.921Z,94742.00
2023-05-10T11:01:19.318Z,94742.00
2023-05-10T11:02:19.069Z,94740.00
2023-05-10T11:03:19.140Z,94742.00
2023-05-10T11:04:19.283Z,94740.00
2023-05-10T11:05:19.331Z,94738.00
2023-05-10T11:06:19.349Z,94732.00
2023-05-10T11:07:19.426Z,94734.00
2023-05-10T11:08:19.538Z,94734.00
2023-05-10T11:09:19.602Z,94734.00
2023-05-10T11:10:19.678Z,94732.00
2023-05-10T11:11:19.731Z,94732.00
2023-05-10T11:12:19.814Z,94728.00
2023-05-10T11:13:19.879Z,94726.00
2023-05-10T11:14:19.947Z,94728.00
2023-05-10T11:15:20.027Z,94726.00
2023-05-10T11:16:20.164Z,94726.00
2023-05-10T11:17:20.164Z,94726.00
2023-05-10T11:18:20.270Z,94726.00
2023-05-10T11:19:20.312Z,94726.00
2023-05-10T11:20:20.516Z,94726.00
2023-05-10T11:21:20.479Z,94726.00
2023-05-10T11:22:21.027Z,94726.00
2023-05-10T11:23:20.643Z,94726.00
2023-05-10T11:24:20.794Z,94726.00
2023-05-10T11:25:20.760Z,94726.00
2023-05-10T11:26:20.837Z,94724.00
2023-05-10T11:27:20.911Z,94724.00
2023-05-10T11:28:21.040Z,94724.00
2023-05-10T11:29:21.153Z,94726.00
2023-05-10T11:30:21.279Z,94724.00
2023-05-10T11:31:21.267Z,94722.00
2023-05-10T11:32:21.293Z,94724.00
2023-05-10T11:33:21.400Z,94722.00
2023-05-10T11:34:21.440Z,94720.00
2023-05-10T11:35:21.526Z,94718.00
2023-05-10T11:36:21.588Z,94720.00
2023-05-10T11:37:21.655Z,94722.00
2023-05-10T11:38:21.812Z,94720.00
2023-05-10T11:39:21.823Z,94718.00
2023-05-10T11:40:21.926Z,94718.00
2023-05-10T11:41:21.992Z,94720.00
2023-05-10T11:42:22.054Z,94720.00
2023-05-10T11:43:22.304Z,94720.00
2023-05-10T11:44:22.205Z,94720.00
2023-05-10T11:45:22.281Z,94720.00